Time;durP1;ratioP1;P1;durP2;ratioP2;P2;SDS_P1;SDS_P2;PMS_P1;PMS_P2;Temp;Humidity;BMP_temperature;BMP_pressure;BME280_temperature;BME280_humidity;BME280_pressure;Samples;Min_cycle;Max_cycle;Signal;HPM_P1;HPM_P2
2021/01/09 00:01:55;;;;;;;31.20;18.73;;;;;;;-0.05;91.62;99053.06;4916695;29;20457;-65
2021/01/09 00:04:20;;;;;;;33.15;18.75;;;;;;;0.09;91.91;99058.50;4937729;29;20038;-65
2021/01/09 00:06:45;;;;;;;35.35;19.00;;;;;;;0.09;91.78;99053.41;4940227;28;20042;-65
2021/01/09 00:09:11;;;;;;;31.77;19.23;;;;;;;0.49;92.75;99051.97;4919944;29;20607;-65
2021/01/09 00:11:36;;;;;;;34.03;19.55;;;;;;;0.28;90.79;99051.38;4929898;29;20040;-65
2021/01/09 00:14:02;;;;;;;31.55;18.20;;;;;;;0.48;90.96;99048.56;4916606;29;20047;-65
2021/01/09 00:16:27;;;;;;;41.08;21.05;;;;;;;0.49;91.54;99049.44;4928092;29;20086;-65
2021/01/09 00:18:53;;;;;;;36.22;20.23;;;;;;;0.53;92.47;99056.31;4920140;29;20446;-65
2021/01/09 00:21:18;;;;;;;31.02;19.02;;;;;;;0.41;89.03;99053.44;4931974;29;20025;-65
2021/01/09 00:23:43;;;;;;;31.23;18.90;;;;;;;0.35;89.94;99055.84;4922804;29;20508;-65
2021/01/09 00:26:09;;;;;;;31.05;18.60;;;;;;;0.32;90.47;99050.66;4931823;29;20020;-65
2021/01/09 00:28:34;;;;;;;30.00;18.52;;;;;;;0.28;90.49;99051.38;4921175;29;20024;-65
2021/01/09 00:31:00;;;;;;;32.47;19.15;;;;;;;0.31;91.83;99056.56;4916654;29;20063;-63
2021/01/09 00:33:25;;;;;;;31.55;18.42;;;;;;;0.31;90.95;99056.56;4931271;29;20028;-63
2021/01/09 00:35:53;;;;;;;30.98;17.92;;;;;;;0.25;90.95;99050.50;4923327;29;20095;-64
2021/01/09 00:38:18;;;;;;;28.17;17.13;;;;;;;0.38;91.42;99054.22;4924187;29;20058;-64
2021/01/09 00:40:44;;;;;;;32.78;18.08;;;;;;;0.33;91.03;99052.38;4930072;29;20059;-64
2021/01/09 00:43:10;;;;;;;35.00;18.10;;;;;;;0.35;91.69;99050.75;4919143;29;20031;-64
2021/01/09 00:45:35;;;;;;;28.88;17.38;;;;;;;0.18;91.79;99053.69;4929632;29;20496;-64
2021/01/09 00:48:01;;;;;;;31.55;18.52;;;;;;;0.37;92.88;99054.19;4924419;29;20023;-64
2021/01/09 00:50:26;;;;;;;28.25;17.30;;;;;;;0.33;90.58;99057.47;4934998;29;20414;-64
2021/01/09 00:52:52;;;;;;;25.35;16.15;;;;;;;0.31;90.16;99059.13;4935018;29;20027;-64
2021/01/09 00:55:18;;;;;;;29.80;17.85;;;;;;;0.37;90.83;99049.09;4934905;29;20024;-64
2021/01/09 00:57:43;;;;;;;29.33;17.20;;;;;;;0.31;90.17;99059.13;4934713;29;20484;-64
2021/01/09 08:01:19;;;;;;;43.15;23.55;;;;;;;0.50;91.05;99211.75;5501567;23;20055;-62
2021/01/09 08:03:45;;;;;;;39.85;22.42;;;;;;;0.55;91.13;99215.28;4935986;29;20350;-64
2021/01/09 08:06:10;;;;;;;40.40;23.30;;;;;;;0.51;90.47;99216.00;4935931;29;20070;-64
2021/01/09 08:08:36;;;;;;;40.00;23.15;;;;;;;0.65;90.45;99227.47;4935733;29;20028;-64
2021/01/09 08:11:04;;;;;;;39.85;24.52;;;;;;;0.72;90.31;99226.81;4935665;29;20109;-64
2021/01/09 08:13:29;;;;;;;40.83;23.33;;;;;;;0.67;90.28;99230.91;4935901;29;20103;-64
2021/01/09 08:15:54;;;;;;;43.10;21.50;;;;;;;0.73;90.22;99233.66;4935649;29;20501;-63
2021/01/09 08:18:20;;;;;;;40.55;21.10;;;;;;;0.70;90.29;99238.66;4974399;23;20514;-66
2021/01/09 08:20:48;;;;;;;39.50;22.50;;;;;;;0.67;90.69;99236.00;4934091;29;20086;-66
2021/01/09 08:23:13;;;;;;;42.83;21.95;;;;;;;0.74;91.06;99243.03;4935364;29;20036;-66
2021/01/09 08:25:39;;;;;;;44.83;22.55;;;;;;;0.84;90.51;99241.59;4935657;29;20035;-66
2021/01/09 08:28:05;;;;;;;38.70;21.58;;;;;;;0.85;90.08;99242.47;4935338;29;20027;-66
2021/01/09 08:30:35;;;;;;;37.53;21.00;;;;;;;0.99;90.44;99248.81;4935517;29;20541;-66
2021/01/09 08:33:06;;;;;;;36.08;20.98;;;;;;;1.09;89.36;99238.03;4935434;29;20405;-66
2021/01/09 08:35:32;;;;;;;36.40;20.83;;;;;;;1.35;90.13;99240.41;4935459;29;20445;-66
2021/01/09 08:37:59;;;;;;;37.10;20.95;;;;;;;1.27;88.41;99242.78;4935216;29;20547;-66
2021/01/09 08:40:25;;;;;;;36.03;21.92;;;;;;;1.19;88.53;99241.72;4935434;29;20036;-66
2021/01/09 08:43:05;;;;;;;33.88;20.65;;;;;;;1.38;88.41;99245.59;4935207;29;20024;-66
2021/01/09 08:45:49;;;;;;;;;;;;;;;1.48;87.38;99242.47;4935847;29;20046;-66
2021/01/09 08:48:22;;;;;;;45.85;24.70;;;;;;;1.00;87.98;99253.09;4935078;29;19962;-66
2021/01/09 08:50:52;;;;;;;40.17;23.67;;;;;;;1.45;88.03;99247.47;4934120;29;20024;-66
2021/01/09 08:53:17;;;;;;;39.15;23.60;;;;;;;1.69;85.72;99248.13;4954067;28;20027;-66
2021/01/09 08:55:43;;;;;;;42.67;22.10;;;;;;;1.31;85.44;99248.84;4952911;29;20130;-66
2021/01/09 08:58:12;;;;;;;40.83;22.08;;;;;;;1.61;84.93;99252.19;4953551;28;20472;-65
2021/01/09 09:00:38;;;;;;;45.00;24.27;;;;;;;2.05;84.62;99254.94;4953345;28;20444;-65
2021/01/09 09:03:06;;;;;;;40.85;23.63;;;;;;;2.08;86.58;99249.91;4954569;28;20059;-65
2021/01/09 09:05:32;;;;;;;40.35;23.42;;;;;;;2.45;80.88;99253.28;4954059;28;20041;-65
2021/01/09 09:08:00;;;;;;;40.63;23.25;;;;;;;2.66;81.06;99248.66;4954055;28;20035;-65
2021/01/09 09:10:30;;;;;;;35.90;21.48;;;;;;;3.22;79.21;99254.03;4954072;28;20078;-65
2021/01/09 09:13:14;;;;;;;39.53;23.10;;;;;;;3.51;77.72;99248.56;4954041;28;20023;-65
2021/01/09 09:15:39;;;;;;;33.15;20.52;;;;;;;3.68;75.66;99257.44;4954032;28;20090;-65
2021/01/09 09:18:05;;;;;;;33.05;19.83;;;;;;;3.64;76.22;99257.34;4953885;28;20461;-65
2021/01/09 09:20:34;;;;;;;35.88;22.08;;;;;;;3.95;74.90;99254.44;4953879;28;20062;-65
2021/01/09 09:23:14;;;;;;;41.47;23.40;;;;;;;3.74;77.66;99260.09;4953966;28;20055;-65
2021/01/09 09:25:39;;;;;;;34.63;20.60;;;;;;;4.14;76.99;99263.28;4953851;28;20035;-65
2021/01/09 09:28:04;;;;;;;38.60;22.67;;;;;;;5.12;73.48;99259.47;4953818;28;20039;-65
2021/01/09 09:30:30;;;;;;;45.05;23.02;;;;;;;5.90;69.38;99258.56;4953875;28;20027;-65
2021/01/09 09:33:09;;;;;;;35.35;20.23;;;;;;;5.22;70.23;99268.16;4953894;28;20034;-65
2021/01/09 09:35:34;;;;;;;23.27;16.43;;;;;;;4.53;67.23;99277.53;4936010;28;20039;-65
2021/01/09 09:38:01;;;;;;;22.95;14.43;;;;;;;4.70;67.23;99276.09;4961671;28;20392;-65
2021/01/09 09:40:29;;;;;;;19.15;13.02;;;;;;;8.25;57.12;99261.19;4953914;28;20027;-65
2021/01/09 09:43:09;;;;;;;23.50;14.05;;;;;;;10.79;49.79;99251.13;4953603;28;20020;-65
2021/01/09 09:45:34;;;;;;;;;;;;;;;11.84;46.09;99256.66;4952472;28;20026;-65
2021/01/09 09:48:00;;;;;;;21.80;15.55;;;;;;;11.03;47.65;99271.56;4952743;28;19914;-65
2021/01/09 09:50:25;;;;;;;21.10;15.48;;;;;;;8.59;53.86;99278.41;4953615;28;20027;-65
2021/01/09 09:53:01;;;;;;;23.30;14.35;;;;;;;5.99;57.12;99282.66;4953336;28;20499;-65
2021/01/09 09:55:27;;;;;;;23.17;16.38;;;;;;;4.21;68.75;99306.16;4953680;28;20412;-65
2021/01/09 09:58:09;;;;;;;32.28;21.90;;;;;;;6.57;59.90;99281.38;4953801;28;20030;-65
2021/01/09 10:00:44;;;;;;;40.83;25.42;;;;;;;4.70;64.61;99298.34;4954223;28;20492;-65
2021/01/09 10:03:10;;;;;;;26.33;17.17;;;;;;;3.87;67.94;99297.06;4957305;28;20086;-66
2021/01/09 10:05:35;;;;;;;25.52;16.75;;;;;;;4.24;68.65;99295.94;4957304;28;20031;-66
2021/01/09 10:08:12;;;;;;;30.35;16.98;;;;;;;2.99;72.85;99298.78;4957357;28;20027;-66
2021/01/09 10:10:37;;;;;;;23.10;15.00;;;;;;;3.34;72.62;99302.06;4956984;28;20126;-65
2021/01/09 10:13:03;;;;;;;24.08;14.05;;;;;;;3.14;70.29;99299.09;4957400;28;20059;-66
2021/01/09 10:15:28;;;;;;;20.40;12.43;;;;;;;1.92;71.57;99291.25;4957115;28;20051;-66
2021/01/09 10:17:55;;;;;;;26.05;15.45;;;;;;;2.05;74.95;99295.84;4956972;28;20511;-65
2021/01/09 10:20:21;;;;;;;24.20;14.52;;;;;;;2.14;72.94;99296.06;4957282;28;20023;-65
2021/01/09 10:22:46;;;;;;;21.20;13.20;;;;;;;2.01;71.52;99291.47;4957222;28;20488;-69
2021/01/09 10:25:12;;;;;;;20.08;13.20;;;;;;;2.18;72.11;99290.19;4957028;28;20472;-71
2021/01/09 10:27:37;;;;;;;18.63;12.45;;;;;;;2.70;71.68;99286.22;4956856;28;20046;-70
2021/01/09 10:30:04;;;;;;;19.30;12.68;;;;;;;2.98;70.29;99281.69;4955642;28;20024;-69
2021/01/09 10:32:29;;;;;;;23.23;13.15;;;;;;;2.57;69.38;99289.38;4956467;28;20392;-69
2021/01/09 10:34:54;;;;;;;18.95;12.27;;;;;;;3.31;69.28;99282.38;4956735;28;20027;-69
2021/01/09 10:37:20;;;;;;;23.30;13.43;;;;;;;5.17;62.71;99265.53;4932016;28;20456;-69
2021/01/09 10:39:45;;;;;;;15.88;11.02;;;;;;;6.59;57.66;99265.94;4937176;29;20023;-70
2021/01/09 10:42:11;;;;;;;14.07;10.13;;;;;;;7.72;54.01;99267.19;4940767;29;20023;-69
2021/01/09 10:44:36;;;;;;;14.35;9.55;;;;;;;7.05;52.96;99272.16;4938808;29;20030;-69
2021/01/09 10:47:01;;;;;;;15.00;9.88;;;;;;;6.20;56.08;99272.56;4936977;29;20103;-69
2021/01/09 10:49:26;;;;;;;13.50;9.50;;;;;;;4.83;59.40;99283.09;4937192;29;20102;-63
2021/01/09 10:51:52;;;;;;;15.55;10.85;;;;;;;3.97;62.25;99290.38;4936860;29;20087;-63
2021/01/09 10:54:17;;;;;;;15.15;11.02;;;;;;;3.01;65.58;99286.91;4940556;29;20035;-62
2021/01/09 10:56:46;;;;;;;18.15;12.13;;;;;;;2.59;68.41;99303.06;4937918;29;20055;-62
2021/01/09 10:59:12;;;;;;;17.35;12.20;;;;;;;1.30;73.12;99306.66;4936946;29;20024;-62
2021/01/09 11:01:37;;;;;;;16.42;11.43;;;;;;;0.84;74.52;99301.97;4936871;29;20063;-62
2021/01/09 11:04:03;;;;;;;19.80;13.18;;;;;;;0.97;75.48;99304.06;4936820;29;20027;-62
2021/01/09 11:06:28;;;;;;;24.27;15.77;;;;;;;1.12;77.43;99296.81;4936922;29;20027;-63
2021/01/09 11:08:53;;;;;;;23.80;14.23;;;;;;;1.22;75.04;99301.34;4936615;29;20027;-62
2021/01/09 11:11:20;;;;;;;15.55;10.65;;;;;;;1.53;73.12;99294.50;4936731;29;20016;-63
2021/01/09 11:13:46;;;;;;;16.60;9.82;;;;;;;1.38;72.33;99291.56;4936053;29;20114;-62
2021/01/09 11:16:11;;;;;;;15.88;9.25;;;;;;;1.36;71.80;99298.31;4936677;29;20078;-62
2021/01/09 11:18:36;;;;;;;14.82;9.98;;;;;;;0.94;73.11;99304.81;4936283;29;20028;-63
2021/01/09 11:21:02;;;;;;;14.13;9.55;;;;;;;1.22;72.84;99300.50;4936541;29;20035;-63
2021/01/09 11:23:27;;;;;;;14.02;8.82;;;;;;;1.27;71.35;99304.03;4936584;29;20075;-63
2021/01/09 11:25:52;;;;;;;14.23;9.48;;;;;;;1.48;71.32;99301.19;4936711;29;20028;-68
2021/01/09 11:28:18;;;;;;;15.32;10.80;;;;;;;1.19;72.05;99306.38;4936839;29;20023;-62
2021/01/09 11:30:45;;;;;;;15.63;8.68;;;;;;;1.28;70.93;99306.63;4936074;29;20031;-62
2021/01/09 11:33:10;;;;;;;10.82;7.80;;;;;;;1.19;70.93;99305.50;4936562;29;20385;-65
2021/01/09 11:35:38;;;;;;;21.15;8.95;;;;;;;1.24;71.55;99315.00;4936261;29;20032;-70
2021/01/09 11:38:04;;;;;;;16.40;9.27;;;;;;;1.38;71.07;99302.63;4936374;29;20710;-70
2021/01/09 11:40:30;;;;;;;17.02;8.70;;;;;;;1.96;70.25;99298.16;4936233;29;20024;-68
2021/01/09 11:42:55;;;;;;;16.42;9.52;;;;;;;2.12;67.74;99304.50;4936171;29;20461;-70
2021/01/09 11:45:21;;;;;;;17.38;9.63;;;;;;;2.45;66.63;99296.75;4936047;29;20023;-69
2021/01/09 11:47:47;;;;;;;13.43;8.82;;;;;;;3.26;64.94;99286.53;4934659;29;20115;-69
2021/01/09 11:50:12;;;;;;;13.35;8.05;;;;;;;4.37;60.89;99291.88;4936256;29;20130;-70
2021/01/09 11:52:38;;;;;;;12.10;7.85;;;;;;;3.77;61.92;99283.22;4936062;29;20493;-71
2021/01/09 11:55:05;;;;;;;10.18;7.22;;;;;;;2.83;63.01;99307.84;4935973;29;20034;-69
2021/01/09 11:57:30;;;;;;;11.70;8.13;;;;;;;2.31;65.11;99297.31;4935749;29;20035;-69
2021/01/09 11:59:56;;;;;;;11.75;8.35;;;;;;;1.96;67.66;99305.81;4935581;29;20567;-69
2021/01/09 12:02:21;;;;;;;13.20;9.48;;;;;;;1.90;69.95;99303.13;4935647;29;20023;-69
2021/01/09 12:04:46;;;;;;;13.63;8.95;;;;;;;1.96;68.40;99300.72;4936083;29;20097;-71
2021/01/09 12:07:12;;;;;;;15.18;9.50;;;;;;;1.99;69.14;99293.13;4935724;29;20492;-70
2021/01/09 12:09:38;;;;;;;15.60;10.25;;;;;;;1.93;68.65;99298.06;4935673;29;20405;-70
2021/01/09 12:12:04;;;;;;;12.98;8.50;;;;;;;1.31;69.95;99310.97;4935314;29;20381;-71
2021/01/09 12:14:30;;;;;;;13.40;8.63;;;;;;;1.39;69.63;99295.84;4934291;29;20042;-70
2021/01/09 12:16:55;;;;;;;14.10;9.10;;;;;;;1.55;70.39;99287.78;4935458;29;20028;-70
2021/01/09 12:19:24;;;;;;;10.52;8.13;;;;;;;1.54;68.33;99288.56;4935283;29;20020;-70
2021/01/09 12:21:54;;;;;;;12.35;8.75;;;;;;;1.39;69.93;99281.38;4935316;29;20027;-71
2021/01/09 12:24:20;;;;;;;14.48;9.85;;;;;;;1.68;70.15;99284.69;4934597;29;20532;-71
2021/01/09 12:26:49;;;;;;;13.85;8.95;;;;;;;1.92;69.30;99281.88;4935504;29;20111;-67
2021/01/09 12:29:15;;;;;;;14.77;9.93;;;;;;;1.42;70.09;99283.16;4935176;29;20049;-69
2021/01/09 12:31:40;;;;;;;13.55;9.38;;;;;;;1.34;69.47;99284.63;4935319;29;20575;-68
2021/01/09 12:34:05;;;;;;;16.90;12.00;;;;;;;1.34;71.51;99295.72;4935193;29;20034;-68
2021/01/09 12:36:30;;;;;;;14.90;10.55;;;;;;;1.50;70.80;99289.34;4935307;29;20430;-68
2021/01/09 12:38:56;;;;;;;15.20;10.25;;;;;;;1.39;70.11;99288.19;4934880;29;20597;-69
2021/01/09 12:41:34;;;;;;;13.10;9.23;;;;;;;1.68;70.58;99292.34;4935137;29;20082;-70
2021/01/09 12:44:00;;;;;;;12.27;8.95;;;;;;;1.55;70.83;99295.44;4935031;29;20027;-70
2021/01/09 12:46:37;;;;;;;13.55;9.85;;;;;;;1.60;70.88;99298.97;4935080;29;20111;-70
2021/01/09 12:49:02;;;;;;;12.90;8.80;;;;;;;1.72;69.36;99299.28;4934879;29;20027;-70
2021/01/09 12:51:27;;;;;;;19.52;10.43;;;;;;;1.65;71.29;99302.50;4934977;29;20071;-65
2021/01/09 12:53:53;;;;;;;16.60;10.70;;;;;;;1.40;71.78;99307.78;4934582;29;20615;-65
2021/01/09 12:56:19;;;;;;;18.92;10.30;;;;;;;1.38;71.86;99312.84;4935012;29;20058;-64
2021/01/09 12:58:44;;;;;;;14.15;8.63;;;;;;;1.13;69.14;99308.75;4934911;29;20027;-63
2021/01/09 13:01:10;;;;;;;13.75;9.25;;;;;;;1.05;70.27;99312.75;4934525;29;20019;-63
2021/01/09 13:03:35;;;;;;;15.68;10.00;;;;;;;1.15;71.58;99313.88;4934870;29;20031;-65
2021/01/09 13:06:00;;;;;;;15.90;10.05;;;;;;;1.01;70.76;99310.94;4934697;29;20032;-63
2021/01/09 13:08:26;;;;;;;15.27;10.52;;;;;;;1.19;73.25;99310.59;4934501;29;20027;-63
2021/01/09 13:10:51;;;;;;;15.75;10.32;;;;;;;1.24;72.55;99309.91;4934572;29;20051;-63
2021/01/09 13:13:17;;;;;;;17.05;10.27;;;;;;;0.93;72.47;99317.53;4934819;29;20049;-63
2021/01/09 13:15:43;;;;;;;17.25;10.55;;;;;;;1.07;71.24;99316.25;4934575;29;20508;-63
2021/01/09 13:18:08;;;;;;;15.23;9.40;;;;;;;1.22;70.07;99311.56;4934570;29;20025;-63
2021/01/09 16:46:05;;;;;;;23.27;15.95;;;;;;;-1.30;83.72;99367.75;5081094;27;20396;-69
2021/01/09 16:48:31;;;;;;;27.52;16.00;;;;;;;-1.30;82.32;99366.88;5073061;28;20041;-69
2021/01/09 16:50:56;;;;;;;27.42;15.35;;;;;;;-1.44;83.05;99363.81;5058186;28;20044;-69
2021/01/09 16:53:21;;;;;;;24.85;15.25;;;;;;;-1.46;83.09;99369.63;5057710;28;20037;-69
2021/01/09 16:55:47;;;;;;;26.35;14.75;;;;;;;-1.60;83.35;99372.47;5058558;28;20028;-69
2021/01/09 16:58:12;;;;;;;22.75;13.00;;;;;;;-1.55;84.18;99375.19;5057013;28;20322;-69
2021/01/09 17:00:38;;;;;;;20.40;12.70;;;;;;;-1.65;84.04;99373.09;5059336;28;20021;-69
2021/01/09 17:03:03;;;;;;;20.92;12.38;;;;;;;-1.71;84.42;99376.28;5056598;28;20021;-68
2021/01/09 17:05:28;;;;;;;22.02;12.18;;;;;;;-1.69;84.01;99376.31;5055529;28;20106;-69
2021/01/09 17:07:54;;;;;;;21.15;12.88;;;;;;;-1.76;84.76;99376.91;5053898;28;20060;-69
2021/01/09 17:10:21;;;;;;;26.73;13.90;;;;;;;-1.77;85.46;99372.63;5059929;28;20032;-70
2021/01/09 17:12:46;;;;;;;27.60;15.52;;;;;;;-1.88;84.65;99375.59;5053731;28;20489;-69
2021/01/09 17:15:13;;;;;;;22.05;13.23;;;;;;;-1.86;83.88;99378.19;5059998;28;20029;-69
2021/01/09 17:17:39;;;;;;;25.30;13.50;;;;;;;-1.83;84.38;99374.13;5053464;28;20024;-69
2021/01/09 17:20:08;;;;;;;31.95;16.48;;;;;;;-1.82;84.13;99380.94;5057017;28;20481;-71
2021/01/09 17:22:33;;;;;;;29.00;16.88;;;;;;;-1.94;84.42;99382.09;5056015;28;20116;-70
2021/01/09 17:24:59;;;;;;;26.80;15.35;;;;;;;-1.97;85.16;99390.47;5057280;28;20029;-69
2021/01/09 17:27:25;;;;;;;31.60;15.02;;;;;;;-1.95;85.20;99385.44;5059970;28;20115;-69
2021/01/09 17:29:50;;;;;;;24.92;13.30;;;;;;;-1.97;85.64;99387.06;5058841;28;20064;-69
2021/01/09 17:32:15;;;;;;;29.83;17.15;;;;;;;-1.94;85.13;99394.78;5057466;28;20025;-70
2021/01/09 17:34:42;;;;;;;35.00;19.80;;;;;;;-1.92;85.62;99398.28;5059539;28;20021;-69
2021/01/09 17:37:08;;;;;;;29.02;15.98;;;;;;;-1.90;85.98;99392.44;5059213;28;20159;-69
2021/01/09 17:39:34;;;;;;;23.92;12.93;;;;;;;-2.01;85.13;99397.88;5059225;28;20111;-70
2021/01/09 17:42:01;;;;;;;20.77;12.98;;;;;;;-2.03;84.61;99396.94;5053345;28;20396;-69
2021/01/09 17:44:28;;;;;;;26.60;13.95;;;;;;;-2.13;84.98;99408.38;5059201;28;20021;-69
2021/01/09 17:46:54;;;;;;;86.25;34.10;;;;;;;-2.23;85.46;99401.16;5053484;28;20032;-69
2021/01/09 17:49:19;;;;;;;81.95;29.58;;;;;;;-2.26;85.46;99401.06;5055020;28;20105;-69
2021/01/09 17:51:46;;;;;;;45.55;21.48;;;;;;;-2.22;85.37;99402.94;5059010;28;20075;-69
2021/01/09 17:54:14;;;;;;;43.33;23.27;;;;;;;-2.23;85.18;99401.16;5059036;28;20032;-69
2021/01/09 17:56:41;;;;;;;33.05;15.88;;;;;;;-2.24;84.93;99399.44;5049385;28;20286;-69
2021/01/09 17:59:06;;;;;;;62.67;31.33;;;;;;;-2.30;86.36;99399.19;5042353;28;20136;-70
2021/01/09 18:01:36;;;;;;;60.05;28.60;;;;;;;-2.24;87.02;99396.91;5039371;28;20035;-69
2021/01/09 18:04:01;;;;;;;;;;;;;;;-2.26;87.27;99396.00;5046074;28;20488;-69
2021/01/09 18:06:27;;;;;;;85.13;40.63;;;;;;;-2.30;87.40;99404.25;5039438;28;19927;-70
2021/01/09 18:08:52;;;;;;;72.30;36.05;;;;;;;-2.29;87.57;99411.94;5042637;28;20024;-70
2021/01/09 18:11:18;;;;;;;60.55;30.85;;;;;;;-2.30;87.13;99409.34;5045328;28;20029;-65
2021/01/09 18:13:43;;;;;;;47.08;24.38;;;;;;;-2.47;87.22;99417.06;5042273;28;20033;-69
2021/01/09 18:16:08;;;;;;;99.78;55.95;;;;;;;-2.37;88.19;99414.16;5044040;28;20021;-69
2021/01/09 18:18:34;;;;;;;58.38;33.47;;;;;;;-2.55;88.02;99422.63;5041625;28;20040;-70
2021/01/09 18:20:59;;;;;;;45.10;26.10;;;;;;;-2.48;88.13;99417.00;5039526;28;20029;-71
2021/01/09 18:23:24;;;;;;;38.53;24.15;;;;;;;-2.50;88.41;99414.41;5043337;28;20033;-70
2021/01/09 18:25:50;;;;;;;43.72;25.40;;;;;;;-2.58;88.56;99418.28;5044497;28;20421;-70
2021/01/09 18:28:15;;;;;;;37.83;21.17;;;;;;;-2.55;88.32;99420.97;5042575;28;20044;-68
2021/01/09 18:30:42;;;;;;;41.47;22.55;;;;;;;-2.60;88.64;99419.88;5043660;28;20056;-73
2021/01/09 18:33:08;;;;;;;45.60;22.83;;;;;;;-2.51;88.76;99420.31;5045237;28;20497;-71
2021/01/09 18:35:34;;;;;;;42.42;24.45;;;;;;;-2.42;90.36;99420.69;5044621;28;20107;-71
2021/01/09 18:38:00;;;;;;;55.25;29.63;;;;;;;-2.52;89.95;99418.53;5038822;28;21033;-72
2021/01/09 18:40:27;;;;;;;59.67;28.88;;;;;;;-2.53;89.19;99419.34;5044885;28;20108;-72
2021/01/09 18:42:54;;;;;;;45.53;25.75;;;;;;;-2.52;88.64;99418.53;5038726;28;20060;-71
2021/01/09 18:45:20;;;;;;;38.80;22.17;;;;;;;-2.60;88.60;99430.03;5038476;28;20029;-71
2021/01/09 18:47:46;;;;;;;50.78;30.55;;;;;;;-2.72;89.25;99420.19;5041034;28;20063;-71
2021/01/09 18:50:13;;;;;;;44.33;25.98;;;;;;;-2.71;89.02;99423.59;5038708;28;20032;-71
2021/01/09 18:52:39;;;;;;;40.22;24.58;;;;;;;-2.74;89.79;99426.00;5043598;28;20059;-71
2021/01/09 18:55:06;;;;;;;43.67;25.77;;;;;;;-2.73;89.40;99427.75;5038545;28;20017;-71
2021/01/09 18:57:32;;;;;;;48.08;25.63;;;;;;;-2.63;89.59;99434.97;5034732;28;20028;-71
2021/01/09 18:59:57;;;;;;;54.60;28.52;;;;;;;-2.71;90.11;99444.75;5033479;28;20030;-71
2021/01/09 19:02:23;;;;;;;54.33;31.83;;;;;;;-2.77;89.66;99436.00;5033351;28;20029;-72
2021/01/09 19:04:49;;;;;;;75.95;39.13;;;;;;;-2.81;89.82;99439.19;5033240;28;20026;-71
2021/01/09 19:07:14;;;;;;;52.53;28.45;;;;;;;-2.85;89.51;99436.53;5033098;28;20029;-71
2021/01/09 19:09:39;;;;;;;55.15;29.88;;;;;;;-2.86;89.67;99437.31;5032819;28;20371;-71
2021/01/09 19:12:05;;;;;;;55.92;28.70;;;;;;;-2.85;90.25;99444.16;5037922;28;20029;-71
2021/01/09 19:14:30;;;;;;;58.13;31.33;;;;;;;-2.96;89.89;99447.84;5039897;28;20436;-71
2021/01/09 19:16:57;;;;;;;67.05;35.00;;;;;;;-2.95;89.89;99451.22;5039567;28;20490;-71
2021/01/09 19:19:22;;;;;;;65.68;34.53;;;;;;;-3.11;89.97;99459.78;5042851;28;20159;-71
2021/01/09 19:21:48;;;;;;;65.50;33.28;;;;;;;-3.05;90.08;99465.16;5042634;28;20545;-71
2021/01/09 19:24:13;;;;;;;47.88;26.95;;;;;;;-3.05;89.73;99459.22;5039885;28;20021;-71
2021/01/09 19:26:39;;;;;;;48.83;28.15;;;;;;;-2.90;89.87;99465.88;5044059;28;20114;-71
2021/01/09 19:29:05;;;;;;;44.85;24.67;;;;;;;-2.98;89.08;99467.19;5041000;28;20056;-71
2021/01/09 19:31:30;;;;;;;46.13;25.20;;;;;;;-2.99;89.45;99470.53;5043747;28;20020;-71
2021/01/09 19:33:55;;;;;;;43.95;24.05;;;;;;;-3.07;89.41;99476.88;5041325;28;20028;-71
2021/01/09 19:36:21;;;;;;;43.13;22.90;;;;;;;-2.94;90.66;99478.34;5043927;28;20072;-71
2021/01/09 19:38:47;;;;;;;47.83;24.70;;;;;;;-2.81;92.26;99479.75;5043275;28;20078;-72
2021/01/09 19:41:13;;;;;;;49.78;26.48;;;;;;;-2.87;91.86;99476.16;5043751;28;20418;-71
2021/01/09 19:43:39;;;;;;;41.83;23.23;;;;;;;-2.83;91.28;99481.38;5040932;28;20083;-70
2021/01/09 19:46:05;;;;;;;65.18;31.17;;;;;;;-3.03;90.00;99491.44;5041496;28;20104;-71
2021/01/09 19:48:31;;;;;;;75.80;34.47;;;;;;;-3.15;90.40;99481.59;5040733;28;20030;-64
2021/01/09 19:50:58;;;;;;;65.93;30.65;;;;;;;-3.24;90.55;99491.31;5043419;28;20094;-64
2021/01/09 19:53:23;;;;;;;43.60;23.67;;;;;;;-3.19;89.85;99491.50;5037491;28;20036;-64
2021/01/09 19:55:49;;;;;;;39.83;22.08;;;;;;;-3.30;89.50;99491.00;5043181;28;20640;-68
2021/01/09 19:58:14;;;;;;;41.78;21.95;;;;;;;-3.18;90.40;99498.34;5044363;28;20022;-68
2021/01/09 20:00:39;;;;;;;43.65;22.92;;;;;;;-3.13;91.50;99496.88;5043088;28;20037;-68
2021/01/09 20:03:05;;;;;;;42.92;22.08;;;;;;;-3.18;91.49;99493.25;5042929;28;20025;-68
2021/01/09 20:05:30;;;;;;;39.17;19.58;;;;;;;-3.22;90.68;99501.50;5043115;28;20087;-68
2021/01/09 20:07:56;;;;;;;46.22;22.55;;;;;;;-3.27;91.25;99508.03;5042823;28;20067;-63
2021/01/09 20:10:21;;;;;;;49.17;23.60;;;;;;;-3.40;90.76;99502.34;5038453;28;20033;-64
2021/01/09 20:12:50;;;;;;;54.35;25.80;;;;;;;-3.33;91.25;99507.72;5043110;28;20021;-64
2021/01/09 20:15:15;;;;;;;60.08;28.00;;;;;;;-3.40;91.33;99507.41;5041901;28;20040;-64
2021/01/09 20:17:41;;;;;;;46.70;25.20;;;;;;;-3.21;90.82;99504.09;5042908;28;20033;-64
2021/01/09 20:20:07;;;;;;;44.50;21.70;;;;;;;-3.34;90.75;99506.84;5059320;22;20172;-74
2021/01/09 20:22:36;;;;;;;38.45;20.00;;;;;;;-3.42;90.05;99510.69;5030242;28;20075;-73
2021/01/09 20:25:01;;;;;;;34.50;17.75;;;;;;;-3.49;90.16;99511.16;5030472;28;20078;-73
2021/01/09 20:27:26;;;;;;;33.85;16.50;;;;;;;-3.24;90.06;99508.16;5031070;28;20025;-73
2021/01/09 20:29:52;;;;;;;35.85;18.15;;;;;;;-3.41;89.46;99510.75;5041491;28;20159;-74
2021/01/09 20:32:17;;;;;;;46.08;22.08;;;;;;;-3.44;89.92;99515.66;5050375;28;20060;-74
2021/01/09 20:34:42;;;;;;;42.00;21.15;;;;;;;-3.45;89.81;99513.91;5046794;28;20009;-74
2021/01/09 20:37:08;;;;;;;39.13;20.45;;;;;;;-3.41;89.90;99509.88;5050759;28;20069;-73
2021/01/09 20:39:34;;;;;;;43.63;21.02;;;;;;;-3.20;92.06;99515.97;5050964;28;20025;-74
2021/01/09 20:41:59;;;;;;;43.90;22.17;;;;;;;-3.00;92.75;99519.47;5048316;28;20060;-74
2021/01/09 20:44:24;;;;;;;42.97;23.60;;;;;;;-3.31;91.12;99523.88;5050244;28;20849;-73
2021/01/09 20:46:50;;;;;;;45.70;24.38;;;;;;;-3.29;91.21;99519.72;5049512;28;20100;-73
2021/01/09 20:49:15;;;;;;;49.88;25.42;;;;;;;-3.33;91.45;99528.00;5050317;28;20025;-74
2021/01/09 20:51:40;;;;;;;42.58;23.90;;;;;;;-3.07;92.70;99526.72;5050240;28;20032;-73
2021/01/09 20:54:06;;;;;;;42.13;23.63;;;;;;;-3.23;91.44;99538.66;5050516;28;20478;-74
2021/01/09 20:56:33;;;;;;;42.63;22.48;;;;;;;-3.21;91.90;99544.66;5050533;28;20080;-74
2021/01/09 20:58:59;;;;;;;47.20;23.35;;;;;;;-3.20;91.19;99545.53;5050581;28;20028;-73
2021/01/09 21:01:26;;;;;;;52.47;22.67;;;;;;;-3.33;90.89;99544.06;5050087;28;20448;-73
2021/01/09 21:03:51;;;;;;;46.83;23.17;;;;;;;-3.53;91.17;99545.63;5050311;28;20032;-74
2021/01/09 21:06:17;;;;;;;48.08;23.80;;;;;;;-3.43;91.29;99542.75;5050673;28;20484;-74
2021/01/09 21:08:44;;;;;;;38.85;19.67;;;;;;;-3.44;91.41;99545.19;5050307;28;20024;-73
2021/01/09 21:11:10;;;;;;;48.10;23.63;;;;;;;-3.50;91.39;99548.28;5050221;28;20638;-71
2021/01/09 21:13:37;;;;;;;47.50;23.00;;;;;;;-3.45;91.55;99549.38;5050534;28;20032;-71
2021/01/09 21:16:06;;;;;;;45.60;20.83;;;;;;;-3.43;92.08;99552.88;5050372;28;20028;-72
2021/01/09 21:18:31;;;;;;;43.65;21.15;;;;;;;-3.29;94.01;99555.19;5049233;28;20029;-71
2021/01/09 21:20:56;;;;;;;41.17;21.33;;;;;;;-3.23;93.33;99553.84;5050174;28;20032;-71
2021/01/09 21:23:22;;;;;;;75.20;33.10;;;;;;;-3.64;91.65;99551.78;5049882;28;20033;-72
2021/01/09 21:25:47;;;;;;;73.82;33.22;;;;;;;-3.82;91.78;99550.84;5050023;28;20029;-71
2021/01/09 21:28:12;;;;;;;56.95;28.33;;;;;;;-3.69;92.24;99548.16;5047854;28;20489;-71
2021/01/09 21:30:38;;;;;;;53.70;26.35;;;;;;;-3.80;91.43;99549.28;5049097;28;20078;-71
2021/01/09 21:33:05;;;;;;;50.90;25.23;;;;;;;-3.80;92.08;99554.34;5053323;28;20021;-72
2021/01/09 21:35:30;;;;;;;52.55;24.52;;;;;;;-3.83;91.70;99554.16;5053374;28;20028;-71
2021/01/09 21:37:55;;;;;;;52.10;25.20;;;;;;;-3.82;92.66;99550.84;5054050;28;20551;-71
2021/01/09 21:40:20;;;;;;;52.55;25.33;;;;;;;-3.80;91.83;99551.81;5053698;28;20059;-72
2021/01/09 21:42:46;;;;;;;47.53;22.35;;;;;;;-3.79;91.82;99556.06;5053460;28;20112;-71
2021/01/09 21:45:12;;;;;;;38.13;20.90;;;;;;;-3.90;91.70;99551.34;5053722;28;20499;-71
2021/01/09 21:47:40;;;;;;;45.83;22.67;;;;;;;-3.95;91.64;99555.28;5053532;28;20028;-71